createdAt,value
2019-01-29T00:00:04.230Z,2.30
2019-01-29T00:01:04.256Z,2.10
2019-01-29T00:02:04.225Z,2.10
2019-01-29T00:03:04.198Z,2.00
2019-01-29T00:04:04.191Z,2.50
2019-01-29T00:05:04.191Z,1.90
2019-01-29T00:06:04.177Z,2.00
2019-01-29T00:07:04.152Z,2.40
2019-01-29T00:08:04.142Z,1.60
2019-01-29T00:09:04.139Z,2.90
2019-01-29T00:10:04.126Z,1.90
2019-01-29T00:11:04.159Z,1.90
2019-01-29T00:12:04.106Z,3.20
2019-01-29T00:13:04.096Z,2.90
2019-01-29T00:14:04.099Z,2.00
2019-01-29T00:15:04.069Z,2.80
2019-01-29T00:16:04.113Z,1.80
2019-01-29T00:17:04.078Z,2.40
2019-01-29T00:18:04.037Z,2.20
2019-01-29T00:19:04.032Z,3.50
2019-01-29T00:20:04.015Z,1.80
2019-01-29T00:21:04.015Z,3.20
2019-01-29T00:22:04.011Z,2.00
2019-01-29T00:23:03.987Z,3.50
2019-01-29T00:24:03.980Z,2.60
2019-01-29T00:25:03.969Z,2.20
2019-01-29T00:26:03.961Z,3.50
2019-01-29T00:27:03.966Z,2.90
2019-01-29T00:28:03.931Z,2.10
2019-01-29T00:29:03.929Z,2.10
2019-01-29T00:30:03.911Z,2.10
2019-01-29T00:31:03.900Z,3.10
2019-01-29T00:32:04.019Z,2.10
2019-01-29T00:33:03.962Z,3.10
2019-01-29T00:34:03.871Z,2.30
2019-01-29T00:35:03.860Z,1.90
2019-01-29T00:36:03.852Z,2.50
2019-01-29T00:37:03.843Z,2.20
2019-01-29T00:38:03.841Z,2.30
2019-01-29T00:39:03.831Z,2.50
2019-01-29T00:40:03.803Z,1.90
2019-01-29T00:41:03.796Z,3.00
2019-01-29T00:42:03.786Z,4.10
2019-01-29T00:43:03.785Z,2.50
2019-01-29T00:44:03.763Z,1.80
2019-01-29T00:45:03.757Z,2.60
2019-01-29T00:46:03.743Z,3.30
2019-01-29T00:47:03.757Z,2.30
2019-01-29T00:48:03.735Z,2.70
2019-01-29T00:49:03.708Z,2.40
2019-01-29T00:50:03.699Z,2.00
2019-01-29T00:51:03.688Z,2.70
2019-01-29T00:52:03.676Z,2.80
2019-01-29T00:53:03.686Z,2.60
2019-01-29T00:54:03.671Z,2.00
2019-01-29T00:55:03.647Z,2.00
2019-01-29T00:56:03.637Z,2.20
2019-01-29T00:57:03.647Z,2.90
2019-01-29T00:58:03.644Z,2.40
2019-01-29T00:59:03.610Z,2.10
2019-01-29T01:00:03.593Z,1.80
2019-01-29T01:01:03.589Z,2.40
2019-01-29T01:02:03.575Z,1.90
2019-01-29T01:03:03.562Z,1.70
2019-01-29T01:04:03.565Z,1.70
2019-01-29T01:05:03.555Z,2.30
2019-01-29T01:06:03.530Z,2.00
2019-01-29T01:07:03.520Z,1.90
2019-01-29T01:08:03.509Z,2.30
2019-01-29T01:09:03.528Z,1.60
2019-01-29T01:10:03.499Z,2.50
2019-01-29T01:11:03.480Z,1.50
2019-01-29T01:12:03.487Z,2.00
2019-01-29T01:13:03.462Z,1.70
2019-01-29T01:14:03.456Z,1.90
2019-01-29T01:15:03.433Z,1.70
2019-01-29T01:16:03.420Z,1.50
2019-01-29T01:17:03.415Z,2.20
2019-01-29T01:18:03.400Z,1.60
2019-01-29T01:19:03.423Z,2.40
2019-01-29T01:20:03.382Z,3.00
2019-01-29T01:21:03.371Z,1.80
2019-01-29T01:22:03.371Z,1.90
2019-01-29T01:23:03.347Z,2.30
2019-01-29T01:24:03.341Z,1.80
2019-01-29T01:25:03.356Z,2.60
2019-01-29T01:26:03.320Z,1.50
2019-01-29T01:27:03.313Z,3.10
2019-01-29T01:28:03.296Z,2.20
2019-01-29T01:29:03.287Z,2.20
2019-01-29T01:30:03.289Z,1.60
2019-01-29T01:31:03.268Z,1.40
2019-01-29T01:32:03.262Z,1.80
2019-01-29T01:33:03.244Z,1.60
2019-01-29T01:34:03.233Z,1.60
2019-01-29T01:35:03.240Z,2.60
2019-01-29T01:36:03.222Z,2.10
2019-01-29T01:37:03.203Z,2.60
2019-01-29T01:38:03.226Z,1.90
2019-01-29T01:39:03.179Z,3.20
2019-01-29T01:40:03.194Z,2.70
2019-01-29T01:41:03.175Z,1.70
2019-01-29T01:42:03.158Z,2.10
2019-01-29T01:43:03.137Z,2.50
2019-01-29T01:44:03.133Z,2.30
2019-01-29T01:45:03.147Z,1.50
2019-01-29T01:46:03.108Z,1.80
2019-01-29T01:47:03.098Z,1.90
2019-01-29T01:48:03.084Z,1.50
2019-01-29T01:49:03.070Z,2.30
2019-01-29T01:50:03.064Z,3.00
2019-01-29T01:51:03.069Z,1.70
2019-01-29T01:52:03.046Z,2.10
2019-01-29T01:53:03.047Z,1.40
2019-01-29T01:54:03.066Z,2.00
2019-01-29T01:55:03.012Z,1.80
2019-01-29T01:56:03.012Z,1.70
2019-01-29T01:57:03.002Z,2.30
2019-01-29T01:58:02.980Z,1.60
2019-01-29T01:59:02.975Z,1.80
2019-01-29T02:00:02.959Z,1.40
2019-01-29T02:01:02.967Z,1.80
2019-01-29T02:02:02.951Z,1.40
2019-01-29T02:03:02.935Z,1.90
2019-01-29T02:04:02.926Z,1.40
2019-01-29T02:05:02.904Z,2.20
2019-01-29T02:06:02.917Z,1.90
2019-01-29T02:07:02.887Z,2.00
2019-01-29T02:08:02.886Z,1.80
2019-01-29T02:09:02.874Z,1.60
2019-01-29T02:10:02.852Z,1.50
2019-01-29T02:11:02.847Z,1.20
2019-01-29T02:12:02.855Z,1.60
2019-01-29T02:13:02.837Z,1.90
2019-01-29T02:14:02.810Z,1.40
2019-01-29T02:15:02.807Z,1.70
2019-01-29T02:16:02.800Z,1.30
2019-01-29T02:17:02.796Z,1.80
2019-01-29T02:18:02.769Z,1.80
2019-01-29T02:19:02.760Z,1.80
2019-01-29T02:20:02.749Z,2.00
2019-01-29T02:21:02.750Z,1.70
2019-01-29T02:22:02.735Z,2.10
2019-01-29T02:23:07.851Z,1.40
2019-01-29T02:24:03.701Z,1.60
2019-01-29T02:25:02.694Z,1.80
2019-01-29T02:26:02.689Z,2.00
2019-01-29T02:27:02.684Z,1.80
2019-01-29T02:28:02.660Z,1.80
2019-01-29T02:29:02.654Z,1.20
2019-01-29T02:30:02.648Z,1.30
2019-01-29T02:31:02.631Z,2.00
2019-01-29T02:32:02.642Z,2.00
2019-01-29T02:33:02.620Z,1.40
2019-01-29T02:34:02.599Z,2.20
2019-01-29T02:35:02.590Z,1.30
2019-01-29T02:36:02.577Z,2.00
2019-01-29T02:37:02.580Z,1.90
2019-01-29T02:38:02.569Z,1.50
2019-01-29T02:39:02.548Z,2.60
2019-01-29T02:40:02.534Z,1.50
2019-01-29T02:41:02.523Z,2.40
2019-01-29T02:42:02.517Z,1.30
2019-01-29T02:43:02.521Z,1.60
2019-01-29T02:44:02.497Z,1.70
2019-01-29T02:45:02.489Z,1.70
2019-01-29T02:46:02.498Z,1.20
2019-01-29T02:47:02.461Z,1.20
2019-01-29T02:48:02.469Z,1.40
2019-01-29T02:49:02.438Z,1.60
2019-01-29T02:50:02.447Z,2.00
2019-01-29T02:51:02.417Z,1.70
2019-01-29T02:52:02.412Z,1.50
2019-01-29T02:53:02.408Z,1.30
2019-01-29T02:54:02.387Z,1.20
2019-01-29T02:55:02.375Z,2.00
2019-01-29T02:56:02.365Z,1.50
2019-01-29T02:57:02.352Z,1.20
2019-01-29T02:58:02.353Z,1.30
2019-01-29T02:59:02.332Z,1.40
2019-01-29T03:00:02.342Z,1.90
2019-01-29T03:01:02.321Z,1.40
2019-01-29T03:02:02.300Z,1.70
2019-01-29T03:03:02.312Z,1.40
2019-01-29T03:04:02.314Z,2.50
2019-01-29T03:05:02.272Z,1.40
2019-01-29T03:06:02.260Z,2.40
2019-01-29T03:07:02.250Z,1.60
2019-01-29T03:08:02.250Z,1.70
2019-01-29T03:09:02.233Z,1.30
2019-01-29T03:10:02.220Z,1.40
2019-01-29T03:11:02.207Z,1.70
2019-01-29T03:12:02.203Z,1.30
2019-01-29T03:13:02.205Z,1.20
2019-01-29T03:14:02.175Z,1.40
2019-01-29T03:15:02.167Z,1.20
2019-01-29T03:16:02.153Z,1.80
2019-01-29T03:17:02.160Z,1.40
2019-01-29T03:18:02.141Z,1.30
2019-01-29T03:19:02.132Z,1.20
2019-01-29T03:20:02.117Z,1.50
2019-01-29T03:21:02.106Z,1.40
2019-01-29T03:22:02.092Z,1.30
2019-01-29T03:23:02.090Z,1.00
2019-01-29T03:24:02.069Z,1.20
2019-01-29T03:25:02.055Z,1.70
2019-01-29T03:26:02.084Z,1.50
2019-01-29T03:27:02.035Z,1.30
2019-01-29T03:28:02.048Z,1.30
2019-01-29T03:29:02.018Z,1.30
2019-01-29T03:30:02.045Z,1.80
2019-01-29T03:31:02.003Z,1.30
2019-01-29T03:32:02.010Z,1.10
2019-01-29T03:33:02.039Z,1.40
2019-01-29T03:34:01.975Z,1.70
2019-01-29T03:35:02.387Z,1.30
2019-01-29T03:36:01.939Z,1.20
2019-01-29T03:37:01.933Z,1.40
2019-01-29T03:38:01.926Z,1.30
2019-01-29T03:39:01.943Z,1.30
2019-01-29T03:40:01.896Z,1.90
2019-01-29T03:41:01.912Z,1.60
2019-01-29T03:42:01.875Z,1.70
2019-01-29T03:43:01.865Z,1.30
2019-01-29T03:44:01.872Z,2.30
2019-01-29T03:45:01.849Z,1.10
2019-01-29T03:46:01.851Z,1.70
2019-01-29T03:47:01.831Z,1.60
2019-01-29T03:48:01.880Z,1.40
2019-01-29T03:49:01.818Z,1.60
2019-01-29T03:50:01.806Z,1.40
2019-01-29T03:51:01.785Z,1.40
2019-01-29T03:52:01.776Z,1.40
2019-01-29T03:53:01.765Z,1.90
2019-01-29T03:54:01.766Z,1.50
2019-01-29T03:55:01.744Z,1.40
2019-01-29T03:56:01.736Z,1.40
2019-01-29T03:57:01.725Z,1.40
2019-01-29T03:58:01.713Z,1.40
2019-01-29T03:59:01.718Z,1.30
2019-01-29T04:00:01.693Z,1.30
2019-01-29T04:01:01.696Z,1.50
2019-01-29T04:02:01.667Z,1.30
2019-01-29T04:03:01.666Z,1.50
2019-01-29T04:04:01.650Z,2.50
2019-01-29T04:05:01.648Z,1.30
2019-01-29T04:06:01.623Z,1.70
2019-01-29T04:07:01.613Z,1.30
2019-01-29T04:08:01.611Z,1.80
2019-01-29T04:09:01.597Z,1.70
2019-01-29T04:10:01.598Z,1.40
2019-01-29T04:11:01.572Z,1.70
2019-01-29T04:12:01.559Z,1.30
2019-01-29T04:13:01.564Z,1.50
2019-01-29T04:14:01.540Z,1.30
2019-01-29T04:15:01.539Z,1.60
2019-01-29T04:16:01.524Z,1.50
2019-01-29T04:17:01.511Z,1.50
2019-01-29T04:18:01.507Z,1.40
2019-01-29T04:19:01.496Z,2.10
2019-01-29T04:20:01.504Z,1.30
2019-01-29T04:21:01.463Z,2.70
2019-01-29T04:22:01.461Z,1.60
2019-01-29T04:23:01.479Z,1.40
2019-01-29T04:24:01.446Z,1.40
2019-01-29T04:25:01.460Z,2.20
2019-01-29T04:26:01.414Z,1.40
2019-01-29T04:27:01.410Z,2.40
2019-01-29T04:28:01.399Z,2.40
2019-01-29T04:29:01.382Z,1.80
2019-01-29T04:30:01.395Z,1.50
2019-01-29T04:31:01.357Z,1.90
2019-01-29T04:32:01.351Z,2.60
2019-01-29T04:33:01.340Z,1.60
2019-01-29T04:34:01.330Z,1.60
2019-01-29T04:35:01.344Z,2.20
2019-01-29T04:36:01.309Z,1.50
2019-01-29T04:37:01.298Z,1.90
2019-01-29T04:38:01.287Z,2.40
2019-01-29T04:39:01.274Z,1.60
2019-01-29T04:40:01.276Z,2.70
2019-01-29T04:41:01.257Z,2.50
2019-01-29T04:42:01.247Z,1.60
2019-01-29T04:43:01.242Z,1.50
2019-01-29T04:44:01.224Z,1.60
2019-01-29T04:45:01.228Z,2.10
2019-01-29T04:46:01.203Z,1.40
2019-01-29T04:47:01.197Z,1.70
2019-01-29T04:48:01.188Z,2.70
2019-01-29T04:49:01.170Z,1.90
2019-01-29T04:50:01.172Z,1.50
2019-01-29T04:51:01.152Z,1.50
2019-01-29T04:52:01.136Z,1.90
2019-01-29T04:53:01.133Z,2.00
2019-01-29T04:54:01.115Z,1.90
2019-01-29T04:55:01.131Z,4.00
2019-01-29T04:56:01.094Z,1.70
2019-01-29T04:57:01.095Z,4.10
2019-01-29T04:58:01.073Z,3.40
2019-01-29T04:59:01.063Z,2.50
2019-01-29T05:00:01.052Z,4.20
2019-01-29T05:01:01.061Z,4.60
2019-01-29T05:02:01.038Z,1.90
2019-01-29T05:03:01.031Z,4.30
2019-01-29T05:04:01.012Z,2.50
2019-01-29T05:05:01.008Z,2.70
2019-01-29T05:06:01.002Z,2.40
2019-01-29T05:07:00.976Z,3.20
2019-01-29T05:08:00.975Z,3.40
2019-01-29T05:09:00.956Z,1.90
2019-01-29T05:10:00.951Z,2.30
2019-01-29T05:11:00.948Z,2.40
2019-01-29T05:12:00.936Z,2.80
2019-01-29T05:13:00.916Z,2.20
2019-01-29T05:14:00.937Z,2.40
2019-01-29T05:15:00.890Z,2.10
2019-01-29T05:16:00.900Z,1.70
2019-01-29T05:17:00.874Z,2.20
2019-01-29T05:18:00.870Z,2.10
2019-01-29T05:19:00.854Z,3.00
2019-01-29T05:20:00.936Z,3.00
2019-01-29T05:21:00.843Z,3.60
2019-01-29T05:22:00.819Z,2.20
2019-01-29T05:23:00.813Z,2.20
2019-01-29T05:24:06.705Z,3.10
2019-01-29T05:25:01.782Z,3.30
2019-01-29T05:26:00.798Z,3.00
2019-01-29T05:27:00.788Z,4.70
2019-01-29T05:28:00.756Z,5.10
2019-01-29T05:29:00.746Z,3.10
2019-01-29T05:30:00.737Z,2.90
2019-01-29T05:31:00.742Z,3.10
2019-01-29T05:32:00.713Z,4.70
2019-01-29T05:33:00.708Z,4.70
2019-01-29T05:34:00.708Z,4.00
2019-01-29T05:35:00.701Z,3.50
2019-01-29T05:36:00.697Z,5.60
2019-01-29T05:37:00.667Z,3.40
2019-01-29T05:38:00.659Z,3.30
2019-01-29T05:39:00.641Z,3.00
2019-01-29T05:40:00.628Z,3.90
2019-01-29T05:41:00.617Z,3.30
2019-01-29T05:42:00.626Z,4.30
2019-01-29T05:43:00.599Z,4.10
2019-01-29T05:44:00.587Z,4.30
2019-01-29T05:45:00.580Z,5.70
2019-01-29T05:46:00.564Z,3.70
2019-01-29T05:47:00.571Z,3.40
2019-01-29T05:48:00.548Z,4.70
2019-01-29T05:49:00.544Z,5.80
2019-01-29T05:50:00.528Z,3.20
2019-01-29T05:51:00.525Z,4.30
2019-01-29T05:52:00.517Z,6.10
2019-01-29T05:53:00.488Z,4.20
2019-01-29T05:54:00.482Z,3.30
2019-01-29T05:55:00.471Z,5.60
2019-01-29T05:56:00.459Z,6.90
2019-01-29T05:57:00.471Z,4.00
2019-01-29T05:58:00.439Z,8.50
2019-01-29T05:59:00.435Z,5.40
2019-01-29T06:00:00.424Z,8.60
2019-01-29T06:01:00.405Z,6.80
2019-01-29T06:02:00.409Z,5.30
2019-01-29T06:03:00.387Z,6.50
2019-01-29T06:04:00.384Z,5.30
2019-01-29T06:05:00.366Z,6.80
2019-01-29T06:06:00.357Z,8.50
2019-01-29T06:07:00.371Z,8.50
2019-01-29T06:08:00.337Z,11.90
2019-01-29T06:09:00.328Z,7.70
2019-01-29T06:10:00.318Z,5.90
2019-01-29T06:11:00.299Z,6.60
2019-01-29T06:12:00.321Z,6.40
2019-01-29T06:13:00.389Z,9.30
2019-01-29T06:14:00.273Z,5.80
2019-01-29T06:15:00.261Z,6.40
2019-01-29T06:16:00.251Z,5.70
2019-01-29T06:17:00.263Z,7.70
2019-01-29T06:18:00.241Z,8.40
2019-01-29T06:19:00.214Z,10.10
2019-01-29T06:20:00.230Z,9.40
2019-01-29T06:21:00.198Z,8.20
2019-01-29T06:22:00.202Z,10.20
2019-01-29T06:23:00.186Z,5.20
2019-01-29T06:24:00.170Z,6.80
2019-01-29T06:25:00.212Z,7.00
2019-01-29T06:26:00.148Z,9.40
2019-01-29T06:27:00.149Z,11.00
2019-01-29T06:28:00.132Z,8.60
2019-01-29T06:29:00.113Z,10.90
2019-01-29T06:30:00.183Z,8.90
2019-01-29T06:31:00.095Z,11.00
2019-01-29T06:32:00.103Z,9.00
2019-01-29T06:33:00.070Z,14.40
2019-01-29T06:34:00.066Z,8.80
2019-01-29T06:35:00.059Z,9.60
2019-01-29T06:36:00.041Z,10.20
2019-01-29T06:37:00.039Z,9.90
2019-01-29T06:38:00.031Z,10.00
2019-01-29T06:39:00.011Z,11.10
2019-01-29T06:40:00.011Z,13.50
2019-01-29T06:40:59.984Z,5.90
2019-01-29T06:41:59.975Z,10.10
2019-01-29T06:42:59.986Z,9.60
2019-01-29T06:43:59.957Z,10.00
2019-01-29T06:44:59.947Z,8.50
2019-01-29T06:45:59.939Z,8.50
2019-01-29T06:46:59.917Z,7.20
2019-01-29T06:47:59.933Z,10.10
2019-01-29T06:48:59.900Z,7.90
2019-01-29T06:49:59.887Z,11.60
2019-01-29T06:50:59.878Z,7.20
2019-01-29T06:51:59.870Z,6.90
2019-01-29T06:52:59.875Z,7.00
2019-01-29T06:53:59.845Z,6.40
2019-01-29T06:54:59.834Z,8.30
2019-01-29T06:55:59.824Z,6.80
2019-01-29T06:56:59.813Z,7.00
2019-01-29T06:57:59.818Z,10.40
2019-01-29T06:58:59.794Z,6.40
2019-01-29T06:59:59.794Z,7.10
2019-01-29T07:00:59.771Z,7.80
2019-01-29T07:01:59.767Z,12.10
2019-01-29T07:02:59.767Z,10.90
2019-01-29T07:03:59.739Z,11.40
2019-01-29T07:04:59.730Z,14.20
2019-01-29T07:05:59.719Z,9.90
2019-01-29T07:06:59.708Z,12.60
2019-01-29T07:07:59.715Z,9.10
2019-01-29T07:08:59.684Z,9.70
2019-01-29T07:09:59.677Z,9.70
2019-01-29T07:10:59.661Z,9.90
2019-01-29T07:11:59.655Z,8.10
2019-01-29T07:12:59.671Z,7.40
2019-01-29T07:13:59.632Z,8.70
2019-01-29T07:14:59.624Z,9.30
2019-01-29T07:15:59.615Z,12.00
2019-01-29T07:16:59.602Z,9.30
2019-01-29T07:17:59.587Z,8.10
2019-01-29T07:18:59.597Z,9.60
2019-01-29T07:19:59.573Z,9.00
2019-01-29T07:20:59.562Z,6.50
2019-01-29T07:21:59.548Z,7.40
2019-01-29T07:22:59.537Z,6.60
2019-01-29T07:23:59.543Z,6.80
2019-01-29T07:24:59.513Z,8.80
2019-01-29T07:25:59.507Z,9.50
2019-01-29T07:26:59.493Z,9.90
2019-01-29T07:27:59.484Z,8.00
2019-01-29T07:28:59.490Z,8.80
2019-01-29T07:29:59.465Z,8.80
2019-01-29T07:30:59.459Z,8.90
2019-01-29T07:31:59.453Z,7.90
2019-01-29T07:32:59.432Z,8.00
2019-01-29T07:33:59.446Z,11.10
2019-01-29T07:34:59.415Z,8.10
2019-01-29T07:35:59.403Z,7.30
2019-01-29T07:36:59.385Z,9.10
2019-01-29T07:37:59.381Z,9.20
2019-01-29T07:38:59.381Z,10.00
2019-01-29T07:39:59.399Z,8.70
2019-01-29T07:40:59.353Z,7.90
2019-01-29T07:41:59.343Z,6.80
2019-01-29T07:42:59.334Z,7.00
2019-01-29T07:43:59.333Z,8.60
2019-01-29T07:44:59.305Z,7.30
2019-01-29T07:45:59.297Z,10.80
2019-01-29T07:46:59.286Z,9.60
2019-01-29T07:47:59.280Z,19.10
2019-01-29T07:48:59.292Z,10.70
2019-01-29T07:49:59.259Z,11.60
2019-01-29T07:50:59.243Z,10.40
2019-01-29T07:51:59.240Z,9.20
2019-01-29T07:52:59.231Z,7.20
2019-01-29T07:53:59.220Z,8.00
2019-01-29T07:54:59.226Z,9.70
2019-01-29T07:55:59.197Z,8.20
2019-01-29T07:56:59.190Z,9.50
2019-01-29T07:57:59.177Z,6.30
2019-01-29T07:58:59.169Z,7.10
2019-01-29T07:59:59.186Z,8.40
2019-01-29T08:00:59.145Z,7.60
2019-01-29T08:01:59.143Z,7.30
2019-01-29T08:02:59.133Z,8.70
2019-01-29T08:03:59.115Z,5.40
2019-01-29T08:04:59.120Z,6.60
2019-01-29T08:05:59.097Z,6.50
2019-01-29T08:06:59.087Z,8.40
2019-01-29T08:07:59.076Z,9.20
2019-01-29T08:08:59.068Z,6.20
2019-01-29T08:09:59.064Z,6.50
2019-01-29T08:10:59.040Z,7.70
2019-01-29T08:11:59.037Z,6.30
2019-01-29T08:12:59.031Z,6.70
2019-01-29T08:13:59.011Z,5.50
2019-01-29T08:14:59.013Z,5.70
2019-01-29T08:15:58.997Z,6.60
2019-01-29T08:16:58.981Z,6.00
2019-01-29T08:17:58.974Z,4.80
2019-01-29T08:18:58.967Z,4.80
2019-01-29T08:19:58.978Z,5.30
2019-01-29T08:20:58.940Z,4.10
2019-01-29T08:21:58.942Z,9.50
2019-01-29T08:22:58.926Z,7.90
2019-01-29T08:23:58.918Z,8.10
2019-01-29T08:25:01.655Z,9.70
2019-01-29T08:25:58.890Z,6.10
2019-01-29T08:26:58.880Z,5.30
2019-01-29T08:27:58.877Z,6.80
2019-01-29T08:28:59.862Z,7.30
2019-01-29T08:29:58.859Z,6.10
2019-01-29T08:30:58.839Z,5.80
2019-01-29T08:31:58.833Z,7.00
2019-01-29T08:32:58.817Z,5.50
2019-01-29T08:33:58.808Z,6.90
2019-01-29T08:34:58.827Z,6.60
2019-01-29T08:35:58.785Z,7.50
2019-01-29T08:36:58.780Z,7.60
2019-01-29T08:37:58.767Z,5.60
2019-01-29T08:38:58.752Z,5.70
2019-01-29T08:39:58.745Z,6.00
2019-01-29T08:40:58.762Z,6.00
2019-01-29T08:41:58.724Z,4.90
2019-01-29T08:42:58.717Z,5.90
2019-01-29T08:43:58.699Z,5.30
2019-01-29T08:44:58.690Z,5.60
2019-01-29T08:45:59.545Z,5.50
2019-01-29T08:46:58.672Z,4.70
2019-01-29T08:47:58.669Z,5.60
2019-01-29T08:48:58.646Z,6.40
2019-01-29T08:49:58.637Z,8.00
2019-01-29T08:50:58.641Z,5.20
2019-01-29T08:51:58.621Z,5.00
2019-01-29T08:52:58.610Z,6.60
2019-01-29T08:53:58.600Z,7.70
2019-01-29T08:54:58.582Z,4.50
2019-01-29T08:55:58.590Z,4.50
2019-01-29T08:56:58.572Z,4.10
2019-01-29T08:57:58.574Z,7.50
2019-01-29T08:58:58.543Z,4.90
2019-01-29T08:59:58.532Z,5.20
2019-01-29T09:00:58.538Z,5.40
2019-01-29T09:01:58.517Z,5.40
2019-01-29T09:02:58.501Z,4.60
2019-01-29T09:03:58.494Z,5.10
2019-01-29T09:04:58.491Z,3.90
2019-01-29T09:05:58.498Z,4.60
2019-01-29T09:06:58.461Z,4.40
2019-01-29T09:07:58.455Z,6.20
2019-01-29T09:08:58.449Z,4.70
2019-01-29T09:09:58.429Z,7.10
2019-01-29T09:10:58.456Z,4.90
2019-01-29T09:11:58.418Z,5.00
2019-01-29T09:12:58.402Z,4.50
2019-01-29T09:13:58.396Z,5.30
2019-01-29T09:14:58.381Z,4.60
2019-01-29T09:15:58.384Z,4.50
2019-01-29T09:16:58.402Z,4.50
2019-01-29T09:17:58.350Z,4.50
2019-01-29T09:18:58.338Z,6.80
2019-01-29T09:19:58.328Z,4.10
2019-01-29T09:20:58.318Z,5.10
2019-01-29T09:21:58.321Z,5.00
2019-01-29T09:22:58.300Z,6.70
2019-01-29T09:23:58.288Z,7.00
2019-01-29T09:24:58.282Z,5.10
2019-01-29T09:25:58.268Z,5.80
2019-01-29T09:26:58.271Z,4.60
2019-01-29T09:27:58.245Z,7.70
2019-01-29T09:28:58.239Z,5.00
2019-01-29T09:29:58.219Z,5.40
2019-01-29T09:30:58.211Z,4.40
2019-01-29T09:31:58.230Z,6.30
2019-01-29T09:32:58.190Z,5.40
2019-01-29T09:33:58.181Z,3.60
2019-01-29T09:34:58.170Z,4.10
2019-01-29T09:35:58.166Z,4.10
2019-01-29T09:36:58.151Z,3.90
2019-01-29T09:37:58.150Z,4.70
2019-01-29T09:38:58.151Z,5.70
2019-01-29T09:39:58.114Z,5.20
2019-01-29T09:40:58.113Z,5.70
2019-01-29T09:41:58.094Z,5.10
2019-01-29T09:42:58.096Z,4.60
2019-01-29T09:43:58.075Z,5.90
2019-01-29T09:44:58.064Z,4.50
2019-01-29T09:45:58.051Z,4.40
2019-01-29T09:46:58.138Z,4.40
2019-01-29T09:47:58.044Z,5.10
2019-01-29T09:48:58.020Z,5.50
2019-01-29T09:49:58.004Z,3.80
2019-01-29T09:50:57.997Z,3.10
2019-01-29T09:51:57.992Z,4.30
2019-01-29T09:52:57.999Z,5.80
2019-01-29T09:53:57.966Z,4.60
2019-01-29T09:54:57.956Z,4.80
2019-01-29T09:55:57.953Z,6.40
2019-01-29T09:56:57.929Z,4.50
2019-01-29T09:57:57.938Z,5.20
2019-01-29T09:58:57.907Z,4.20
2019-01-29T09:59:57.896Z,4.90
2019-01-29T10:00:57.895Z,5.40
2019-01-29T10:01:57.883Z,8.20
2019-01-29T10:02:57.886Z,7.20
2019-01-29T10:03:57.872Z,11.40
2019-01-29T10:04:57.851Z,4.60
2019-01-29T10:05:57.831Z,7.20
2019-01-29T10:06:57.823Z,6.50
2019-01-29T10:07:57.831Z,4.20
2019-01-29T10:08:57.810Z,5.70
2019-01-29T10:09:57.802Z,4.50
2019-01-29T10:10:57.776Z,6.30
2019-01-29T10:11:57.769Z,3.10
2019-01-29T10:12:57.758Z,4.50
2019-01-29T10:13:57.760Z,5.00
2019-01-29T10:14:57.735Z,4.40
2019-01-29T10:15:57.873Z,4.10
2019-01-29T10:16:57.715Z,4.80
2019-01-29T10:17:57.704Z,3.90
2019-01-29T10:18:57.706Z,5.00
2019-01-29T10:20:02.741Z,5.30
2019-01-29T10:20:58.671Z,5.40
2019-01-29T10:21:57.663Z,6.50
2019-01-29T10:22:57.645Z,5.90
2019-01-29T10:23:57.651Z,5.90
2019-01-29T10:24:57.625Z,5.70
2019-01-29T10:25:57.612Z,3.70
2019-01-29T10:26:57.642Z,4.70
2019-01-29T10:27:57.603Z,3.40
2019-01-29T10:28:57.618Z,5.10
2019-01-29T10:29:57.575Z,7.10
2019-01-29T10:30:57.561Z,4.00
2019-01-29T10:31:57.558Z,3.90
2019-01-29T10:32:57.547Z,3.80
2019-01-29T10:33:57.535Z,4.70
2019-01-29T10:34:57.537Z,7.60
2019-01-29T10:35:57.512Z,4.40
2019-01-29T10:36:57.500Z,3.40
2019-01-29T10:37:57.491Z,4.70
2019-01-29T10:38:57.484Z,3.50
2019-01-29T10:39:57.482Z,5.60
2019-01-29T10:40:57.459Z,4.00
2019-01-29T10:41:57.460Z,4.00
2019-01-29T10:42:57.436Z,4.80
2019-01-29T10:43:57.429Z,4.70
2019-01-29T10:44:57.440Z,3.80
2019-01-29T10:45:57.408Z,4.20
2019-01-29T10:46:57.393Z,3.90
2019-01-29T10:47:57.389Z,5.00
2019-01-29T10:48:57.381Z,4.60
2019-01-29T10:49:57.380Z,4.90
2019-01-29T10:50:57.363Z,4.30
2019-01-29T10:51:57.345Z,4.60
2019-01-29T10:52:57.335Z,3.50
2019-01-29T10:53:57.330Z,3.80
2019-01-29T10:54:58.121Z,2.70
2019-01-29T10:55:57.340Z,5.00
2019-01-29T10:56:57.305Z,3.50
2019-01-29T10:57:57.290Z,3.80
2019-01-29T10:58:57.274Z,4.80
2019-01-29T10:59:57.267Z,5.00
2019-01-29T11:00:57.268Z,3.90
2019-01-29T11:01:57.235Z,4.10
2019-01-29T11:02:57.232Z,5.40
2019-01-29T11:03:57.217Z,6.30
2019-01-29T11:04:57.404Z,7.40
2019-01-29T11:05:57.280Z,5.30
2019-01-29T11:06:57.183Z,5.30
2019-01-29T11:07:57.175Z,4.90
2019-01-29T11:08:57.161Z,4.60
2019-01-29T11:09:57.145Z,4.70
2019-01-29T11:10:57.161Z,4.80
2019-01-29T11:11:57.124Z,3.70
2019-01-29T11:12:57.121Z,4.10
2019-01-29T11:13:57.108Z,4.70
2019-01-29T11:14:57.166Z,3.90
2019-01-29T11:15:57.096Z,5.60
2019-01-29T11:16:57.084Z,4.30
2019-01-29T11:17:57.069Z,4.00
2019-01-29T11:19:03.193Z,5.50
2019-01-29T11:19:58.034Z,4.20
2019-01-29T11:20:57.052Z,4.50
2019-01-29T11:21:57.023Z,6.90
2019-01-29T11:22:57.007Z,4.80
2019-01-29T11:23:56.991Z,6.90
2019-01-29T11:24:56.992Z,5.40
2019-01-29T11:25:56.997Z,4.10
2019-01-29T11:26:56.968Z,6.50
2019-01-29T11:27:56.952Z,5.30
2019-01-29T11:28:56.952Z,3.90
2019-01-29T11:29:56.936Z,5.30
2019-01-29T11:30:56.946Z,3.60
2019-01-29T11:31:56.910Z,5.90
2019-01-29T11:32:56.896Z,6.20
2019-01-29T11:33:56.896Z,3.00
2019-01-29T11:34:56.878Z,5.20
2019-01-29T11:35:56.868Z,5.50
2019-01-29T11:36:56.874Z,5.20
2019-01-29T11:37:56.842Z,4.60
2019-01-29T11:38:56.834Z,3.60
2019-01-29T11:39:56.825Z,3.70
2019-01-29T11:40:56.815Z,4.60
2019-01-29T11:41:56.818Z,4.80
2019-01-29T11:42:56.794Z,5.00
2019-01-29T11:43:56.779Z,4.40
2019-01-29T11:44:56.767Z,3.50
2019-01-29T11:45:56.754Z,3.50
2019-01-29T11:46:56.757Z,4.30
2019-01-29T11:47:56.735Z,5.30
2019-01-29T11:48:56.724Z,5.20
2019-01-29T11:49:56.714Z,5.40
2019-01-29T11:50:56.709Z,4.60
2019-01-29T11:51:56.709Z,3.90
2019-01-29T11:52:56.706Z,4.80
2019-01-29T11:53:56.667Z,3.60
2019-01-29T11:54:56.664Z,4.30
2019-01-29T11:56:04.318Z,4.10
2019-01-29T11:56:57.652Z,4.50
2019-01-29T11:57:56.637Z,2.60
2019-01-29T11:58:56.620Z,3.30
2019-01-29T11:59:56.609Z,3.70
2019-01-29T12:00:56.596Z,4.30
2019-01-29T12:01:56.609Z,7.30
2019-01-29T12:02:56.577Z,4.20
2019-01-29T12:03:56.566Z,4.60
2019-01-29T12:04:56.554Z,4.60
2019-01-29T12:05:56.543Z,4.90
2019-01-29T12:06:56.536Z,3.00
2019-01-29T12:07:56.539Z,5.90
2019-01-29T12:08:56.580Z,4.70
2019-01-29T12:09:56.697Z,5.10
2019-01-29T12:10:56.520Z,3.20
2019-01-29T12:11:56.483Z,3.20
2019-01-29T12:12:56.486Z,3.80
2019-01-29T12:13:56.461Z,2.80
2019-01-29T12:14:56.455Z,4.70
2019-01-29T12:15:56.443Z,4.20
2019-01-29T12:16:56.441Z,4.30
2019-01-29T12:17:56.430Z,5.60
2019-01-29T12:18:58.331Z,4.90
2019-01-29T12:19:56.403Z,3.50
2019-01-29T12:20:56.391Z,5.20
2019-01-29T12:21:56.391Z,3.30
2019-01-29T12:22:56.394Z,4.50
2019-01-29T12:23:56.355Z,6.00
2019-01-29T12:24:56.347Z,4.30
2019-01-29T12:25:56.333Z,3.70
2019-01-29T12:26:56.322Z,4.60
2019-01-29T12:27:56.317Z,5.50
2019-01-29T12:28:56.316Z,7.80
2019-01-29T12:29:56.299Z,4.80
2019-01-29T12:30:56.282Z,6.40
2019-01-29T12:31:56.274Z,7.10
2019-01-29T12:32:56.265Z,3.70
2019-01-29T12:33:56.264Z,3.70
2019-01-29T12:34:56.247Z,3.80
2019-01-29T12:35:56.238Z,4.70
2019-01-29T12:36:56.226Z,4.50
2019-01-29T12:37:56.214Z,5.30
2019-01-29T12:38:56.217Z,3.50
2019-01-29T12:39:56.194Z,3.40
2019-01-29T12:40:56.195Z,3.80
2019-01-29T12:41:56.175Z,3.70
2019-01-29T12:42:56.159Z,4.50
2019-01-29T12:43:56.166Z,4.50
2019-01-29T12:44:56.140Z,3.90
2019-01-29T12:45:56.127Z,3.40
2019-01-29T12:46:56.120Z,3.90
2019-01-29T12:47:56.105Z,5.40
2019-01-29T12:48:56.120Z,3.20
2019-01-29T12:49:56.089Z,3.90
2019-01-29T12:50:56.078Z,4.00
2019-01-29T12:51:56.072Z,3.80
2019-01-29T12:52:56.064Z,3.90
2019-01-29T12:53:56.051Z,4.00
2019-01-29T12:54:56.058Z,5.10
2019-01-29T12:55:56.032Z,5.70
2019-01-29T12:56:56.021Z,5.30
2019-01-29T12:57:56.028Z,4.90
2019-01-29T12:58:56.001Z,5.10
2019-01-29T12:59:56.001Z,5.20
2019-01-29T13:00:55.976Z,4.50
2019-01-29T13:01:55.961Z,4.60
2019-01-29T13:02:55.952Z,4.10
2019-01-29T13:03:55.951Z,5.00
2019-01-29T13:04:55.976Z,3.80
2019-01-29T13:05:55.955Z,4.20
2019-01-29T13:06:55.908Z,5.80
2019-01-29T13:07:55.896Z,4.60
2019-01-29T13:08:55.889Z,7.00
2019-01-29T13:09:55.889Z,6.10
2019-01-29T13:10:55.868Z,5.40
2019-01-29T13:11:55.861Z,7.90
2019-01-29T13:12:55.852Z,6.50
2019-01-29T13:13:55.852Z,7.70
2019-01-29T13:14:55.854Z,8.60
2019-01-29T13:15:55.819Z,8.70
2019-01-29T13:16:55.816Z,9.20